createdAt,value
2023-02-06T00:00:26.521Z,2.80
2023-02-06T00:02:55.085Z,2.63
2023-02-06T00:05:23.815Z,2.60
2023-02-06T00:07:52.476Z,3.57
2023-02-06T00:10:20.495Z,3.00
2023-02-06T00:12:48.701Z,2.90
2023-02-06T00:15:17.606Z,3.80
2023-02-06T00:17:45.664Z,2.70
2023-02-06T00:20:14.725Z,4.97
2023-02-06T00:22:43.447Z,3.87
2023-02-06T00:25:12.073Z,3.67
2023-02-06T00:27:40.654Z,2.70
2023-02-06T00:30:08.990Z,3.77
2023-02-06T00:32:38.285Z,2.90
2023-02-06T00:35:07.256Z,3.17
2023-02-06T00:37:35.774Z,3.77
2023-02-06T00:40:05.079Z,4.13
2023-02-06T00:42:33.558Z,3.63
2023-02-06T00:45:02.212Z,2.80
2023-02-06T00:47:30.297Z,3.67
2023-02-06T00:49:58.182Z,2.83
2023-02-06T00:52:26.698Z,3.60
2023-02-06T00:54:55.496Z,4.83
2023-02-06T00:57:24.360Z,5.33
2023-02-06T00:59:53.958Z,2.97
2023-02-06T01:02:22.364Z,2.97
2023-02-06T01:04:50.312Z,3.43
2023-02-06T01:07:19.508Z,3.57
2023-02-06T01:09:47.486Z,4.03
2023-02-06T01:12:16.118Z,3.03
2023-02-06T01:14:43.993Z,2.67
2023-02-06T01:17:11.938Z,4.30
2023-02-06T01:19:41.027Z,4.10
2023-02-06T01:22:09.565Z,2.90
2023-02-06T01:24:37.640Z,3.30
2023-02-06T01:27:06.057Z,2.13
2023-02-06T01:29:34.492Z,3.80
2023-02-06T01:32:02.835Z,1.67
2023-02-06T01:34:31.811Z,3.23
2023-02-06T01:37:00.269Z,3.60
2023-02-06T01:39:28.679Z,3.37
2023-02-06T01:41:56.505Z,2.93
2023-02-06T01:44:26.991Z,1.93
2023-02-06T01:46:57.153Z,4.07
2023-02-06T01:51:55.450Z,2.30
2023-02-06T01:56:52.312Z,1.98
2023-02-06T01:59:20.901Z,4.17
2023-02-06T02:01:49.474Z,2.60
2023-02-06T02:04:19.019Z,2.40
2023-02-06T02:06:48.571Z,2.83
2023-02-06T02:09:17.583Z,3.33
2023-02-06T02:11:46.188Z,3.37
2023-02-06T02:14:15.910Z,3.17
2023-02-06T02:16:57.443Z,3.30
2023-02-06T02:19:36.589Z,3.57
2023-02-06T02:22:09.375Z,3.60
2023-02-06T02:24:48.498Z,2.90
2023-02-06T02:27:18.364Z,2.87
2023-02-06T02:30:07.477Z,2.77
2023-02-06T02:32:49.450Z,3.30
2023-02-06T02:35:19.647Z,3.63
2023-02-06T02:40:25.479Z,3.52
2023-02-06T02:43:04.609Z,3.53
2023-02-06T02:45:43.044Z,2.23
2023-02-06T02:48:12.513Z,2.63
2023-02-06T02:50:41.669Z,5.60
2023-02-06T02:53:10.308Z,3.43
2023-02-06T02:55:39.264Z,3.37
2023-02-06T02:58:09.362Z,3.30
2023-02-06T03:00:41.718Z,3.47
2023-02-06T03:03:11.495Z,3.77
2023-02-06T03:05:41.007Z,4.20
2023-02-06T03:08:11.240Z,4.53
2023-02-06T03:13:17.909Z,2.60
2023-02-06T03:15:47.367Z,2.00
2023-02-06T03:18:25.807Z,5.03
2023-02-06T03:20:54.376Z,4.60
2023-02-06T03:23:24.658Z,3.90
2023-02-06T03:25:54.076Z,4.40
2023-02-06T03:28:24.168Z,3.77
2023-02-06T03:30:54.449Z,4.73
2023-02-06T03:33:24.303Z,3.37
2023-02-06T03:35:52.792Z,2.93
2023-02-06T03:38:21.589Z,3.83
2023-02-06T03:40:50.211Z,3.23
2023-02-06T03:43:19.740Z,3.13
2023-02-06T03:45:49.864Z,3.17
2023-02-06T03:48:35.120Z,3.20
2023-02-06T03:51:04.773Z,4.57
2023-02-06T03:53:34.787Z,3.37
2023-02-06T03:56:04.692Z,3.43
2023-02-06T03:58:32.579Z,3.03
2023-02-06T04:01:01.072Z,3.80
2023-02-06T04:03:29.743Z,3.07
2023-02-06T04:05:58.125Z,3.93
2023-02-06T04:08:26.732Z,3.43
2023-02-06T04:10:55.337Z,2.20
2023-02-06T04:13:23.459Z,3.13
2023-02-06T04:15:52.258Z,4.20
2023-02-06T04:18:20.114Z,3.50
2023-02-06T04:20:48.532Z,3.83
2023-02-06T04:23:17.287Z,4.43
2023-02-06T04:25:45.862Z,4.43
2023-02-06T04:28:13.836Z,3.70
2023-02-06T04:30:42.650Z,2.20
2023-02-06T04:33:11.410Z,4.30
2023-02-06T04:35:39.193Z,3.83
2023-02-06T04:38:07.366Z,3.17
2023-02-06T04:40:35.427Z,5.57
2023-02-06T04:43:03.391Z,4.07
2023-02-06T04:45:31.685Z,3.10
2023-02-06T04:48:00.257Z,4.00
2023-02-06T04:50:31.995Z,3.63
2023-02-06T04:53:00.812Z,4.03
2023-02-06T04:55:29.584Z,3.13
2023-02-06T04:57:58.190Z,5.47
2023-02-06T05:00:26.653Z,4.37
2023-02-06T05:02:54.983Z,4.97
2023-02-06T05:05:22.981Z,4.27
2023-02-06T05:07:51.549Z,4.20
2023-02-06T05:10:19.585Z,4.07
2023-02-06T05:12:48.137Z,4.27
2023-02-06T05:15:16.510Z,3.70
2023-02-06T05:17:44.834Z,3.13
2023-02-06T05:20:13.479Z,3.53
2023-02-06T05:22:41.404Z,5.77
2023-02-06T05:25:10.044Z,5.50
2023-02-06T05:27:37.968Z,4.97
2023-02-06T05:30:06.394Z,3.30
2023-02-06T05:32:34.956Z,5.27
2023-02-06T05:35:03.443Z,5.00
2023-02-06T05:37:31.316Z,5.07
2023-02-06T05:40:00.062Z,5.73
2023-02-06T05:42:28.188Z,3.23
2023-02-06T05:44:55.982Z,4.97
2023-02-06T05:47:25.137Z,4.97
2023-02-06T05:49:53.835Z,5.23
2023-02-06T05:52:22.002Z,3.53
2023-02-06T05:54:50.484Z,5.97
2023-02-06T05:57:19.024Z,6.80
2023-02-06T05:59:47.687Z,5.77
2023-02-06T06:02:16.446Z,7.70
2023-02-06T06:04:44.921Z,6.63
2023-02-06T06:07:13.713Z,5.17
2023-02-06T06:09:42.901Z,6.23
2023-02-06T06:12:12.831Z,6.70
2023-02-06T06:14:41.638Z,4.80
2023-02-06T06:17:11.053Z,5.53
2023-02-06T06:19:39.871Z,6.43
2023-02-06T06:22:08.313Z,8.13
2023-02-06T06:24:36.867Z,4.80
2023-02-06T06:27:05.554Z,5.17
2023-02-06T06:29:34.139Z,5.67
2023-02-06T06:32:02.512Z,4.77
2023-02-06T06:34:30.479Z,3.37
2023-02-06T06:36:58.459Z,5.73
2023-02-06T06:39:27.227Z,4.33
2023-02-06T06:41:55.877Z,6.77
2023-02-06T06:44:24.095Z,6.37
2023-02-06T06:46:52.578Z,4.27
2023-02-06T06:49:21.323Z,5.40
2023-02-06T06:51:49.959Z,5.73
2023-02-06T06:54:19.996Z,6.33
2023-02-06T06:56:48.736Z,5.53
2023-02-06T06:59:17.136Z,3.73
2023-02-06T07:01:46.238Z,5.07
2023-02-06T07:04:14.594Z,4.60
2023-02-06T07:06:43.051Z,5.10
2023-02-06T07:09:11.341Z,4.40
2023-02-06T07:11:39.244Z,5.43
2023-02-06T07:14:07.682Z,7.03
2023-02-06T07:16:35.798Z,7.97
2023-02-06T07:19:04.530Z,7.97
2023-02-06T07:21:33.072Z,8.23
2023-02-06T07:24:03.062Z,6.20
2023-02-06T07:26:31.458Z,5.80
2023-02-06T07:28:59.904Z,5.67
2023-02-06T07:31:28.322Z,6.57
2023-02-06T07:33:56.746Z,5.07
2023-02-06T07:36:25.120Z,5.70
2023-02-06T07:38:53.567Z,4.93
2023-02-06T07:41:21.881Z,5.03
2023-02-06T07:43:49.912Z,9.60
2023-02-06T07:46:18.382Z,4.67
2023-02-06T07:48:46.983Z,6.03
2023-02-06T07:51:15.210Z,5.37
2023-02-06T07:53:43.093Z,4.97
2023-02-06T07:56:13.095Z,6.00
2023-02-06T07:58:41.015Z,4.97
2023-02-06T08:01:09.519Z,3.83
2023-02-06T08:03:38.224Z,5.57
2023-02-06T08:06:13.645Z,6.03
2023-02-06T08:08:42.321Z,4.07
2023-02-06T08:11:12.733Z,5.70
2023-02-06T08:13:41.196Z,7.60
2023-02-06T08:16:13.561Z,7.47
2023-02-06T08:18:42.244Z,6.30
2023-02-06T08:21:11.901Z,4.43
2023-02-06T08:23:40.017Z,4.20
2023-02-06T08:26:10.408Z,7.43
2023-02-06T08:28:42.090Z,4.57
2023-02-06T08:31:26.464Z,6.30
2023-02-06T08:33:55.147Z,8.33
2023-02-06T08:36:24.693Z,3.90
2023-02-06T08:38:53.622Z,4.87
2023-02-06T08:41:25.096Z,3.67
2023-02-06T08:43:55.218Z,3.40
2023-02-06T08:46:24.455Z,4.23
2023-02-06T08:48:57.092Z,3.87
2023-02-06T08:51:27.411Z,3.87
2023-02-06T08:53:59.933Z,3.77
2023-02-06T08:56:29.079Z,4.37
2023-02-06T08:59:00.520Z,3.00
2023-02-06T09:01:29.691Z,3.27
2023-02-06T09:03:59.436Z,10.70
2023-02-06T09:06:28.860Z,9.80
2023-02-06T09:08:57.680Z,12.17
2023-02-06T09:11:26.666Z,20.60
2023-02-06T09:13:56.788Z,5.37
2023-02-06T09:18:54.341Z,5.00
2023-02-06T09:21:23.583Z,4.67
2023-02-06T09:23:52.730Z,3.50
2023-02-06T09:26:23.051Z,4.40
2023-02-06T09:28:55.976Z,8.40
2023-02-06T09:31:24.242Z,4.30
2023-02-06T09:33:53.179Z,3.40
2023-02-06T09:36:22.478Z,3.50
2023-02-06T09:38:54.037Z,3.43
2023-02-06T09:41:29.462Z,3.13
2023-02-06T09:43:58.906Z,3.37
2023-02-06T09:46:28.568Z,2.77
2023-02-06T09:48:58.413Z,3.43
2023-02-06T09:51:27.884Z,2.97
2023-02-06T09:54:06.621Z,3.97
2023-02-06T09:56:39.756Z,4.23
2023-02-06T09:59:26.212Z,3.50
2023-02-06T10:01:55.703Z,3.63
2023-02-06T10:04:25.750Z,4.27
2023-02-06T10:09:21.810Z,3.92
2023-02-06T10:11:51.933Z,4.07
2023-02-06T10:14:24.994Z,3.90
2023-02-06T10:16:57.863Z,4.80
2023-02-06T10:19:40.139Z,5.07
2023-02-06T10:22:10.057Z,3.57
2023-02-06T10:24:40.072Z,2.73
2023-02-06T10:27:14.140Z,3.70
2023-02-06T10:29:43.981Z,3.77
2023-02-06T10:32:16.785Z,3.60
2023-02-06T10:34:56.036Z,4.00
2023-02-06T10:37:26.285Z,5.20
2023-02-06T10:40:05.627Z,1.40
2023-02-06T10:42:38.467Z,2.90
2023-02-06T10:45:20.284Z,3.40
2023-02-06T10:47:49.248Z,2.63
2023-02-06T10:52:44.834Z,2.30
2023-02-06T10:55:17.486Z,2.60
2023-02-06T10:57:47.553Z,3.20
2023-02-06T11:02:45.351Z,3.87
2023-02-06T11:05:15.760Z,3.40
2023-02-06T11:07:45.157Z,3.33
2023-02-06T11:10:15.338Z,2.53
2023-02-06T11:12:45.408Z,4.17
2023-02-06T11:17:41.109Z,2.05
2023-02-06T11:20:10.441Z,5.30
2023-02-06T11:22:51.076Z,4.83
2023-02-06T11:30:06.135Z,3.77
2023-02-06T11:35:04.176Z,3.98
2023-02-06T11:37:44.526Z,3.77
2023-02-06T11:40:20.633Z,5.03
2023-02-06T11:42:54.374Z,4.97
2023-02-06T11:45:30.328Z,5.73
2023-02-06T11:47:59.247Z,3.80
2023-02-06T11:50:28.984Z,4.93
2023-02-06T11:53:00.835Z,5.57
2023-02-06T11:55:30.811Z,4.13
2023-02-06T11:58:03.562Z,3.47
2023-02-06T12:00:31.985Z,3.97
2023-02-06T12:03:00.672Z,3.90
2023-02-06T12:05:30.975Z,3.10
2023-02-06T12:08:15.435Z,4.37
2023-02-06T12:10:45.447Z,3.27
2023-02-06T12:13:18.380Z,3.23
2023-02-06T12:15:51.290Z,3.47
2023-02-06T12:18:24.250Z,2.87
2023-02-06T12:20:54.615Z,3.67
2023-02-06T12:23:24.478Z,3.40
2023-02-06T12:25:54.492Z,3.63
2023-02-06T12:30:57.805Z,3.08
2023-02-06T12:35:56.579Z,3.75
2023-02-06T12:38:29.167Z,2.60
2023-02-06T12:40:59.675Z,5.03
2023-02-06T12:43:28.725Z,3.67
2023-02-06T12:46:01.103Z,3.53
2023-02-06T12:48:31.264Z,2.47
2023-02-06T12:53:28.608Z,4.00
2023-02-06T12:56:00.572Z,3.57
2023-02-06T12:58:29.580Z,3.70
2023-02-06T13:01:29.343Z,3.53
2023-02-06T13:03:58.702Z,3.30
2023-02-06T13:06:28.720Z,4.70
2023-02-06T13:09:04.671Z,4.00
2023-02-06T13:11:36.284Z,4.93
2023-02-06T13:14:20.816Z,4.07
2023-02-06T13:16:53.177Z,4.23
2023-02-06T13:19:26.228Z,4.07
2023-02-06T13:21:56.365Z,3.90
2023-02-06T13:26:53.368Z,2.60
2023-02-06T13:29:29.184Z,3.30
2023-02-06T13:32:20.834Z,3.07
2023-02-06T13:34:59.900Z,3.50
2023-02-06T13:37:36.314Z,3.93
2023-02-06T13:40:22.923Z,6.57
2023-02-06T13:43:01.649Z,4.67
2023-02-06T13:45:34.766Z,3.73
2023-02-06T13:48:16.812Z,6.87
2023-02-06T13:51:02.218Z,5.37
2023-02-06T13:53:32.337Z,4.67
2023-02-06T13:56:05.105Z,3.67
2023-02-06T13:58:43.716Z,4.23
2023-02-06T14:01:23.769Z,4.97
2023-02-06T14:03:53.164Z,4.23
2023-02-06T14:06:32.810Z,4.23
2023-02-06T14:09:15.003Z,4.43
2023-02-06T14:12:02.451Z,9.33
2023-02-06T14:14:41.920Z,3.17
2023-02-06T14:17:11.992Z,4.37
2023-02-06T14:22:12.135Z,4.33
2023-02-06T14:24:41.500Z,4.23
2023-02-06T14:27:27.314Z,3.73
2023-02-06T14:30:06.414Z,5.50
2023-02-06T14:32:36.982Z,4.93
2023-02-06T14:35:06.986Z,4.60
2023-02-06T14:37:42.614Z,4.00
2023-02-06T14:40:19.266Z,3.07
2023-02-06T14:42:47.909Z,4.67
2023-02-06T14:45:17.892Z,4.00
2023-02-06T14:47:46.514Z,3.37
2023-02-06T14:50:24.221Z,4.60
2023-02-06T14:52:56.370Z,5.03
2023-02-06T14:55:26.469Z,5.90
2023-02-06T14:57:54.722Z,6.53
2023-02-06T15:00:22.674Z,7.17
2023-02-06T15:02:52.525Z,7.30
2023-02-06T15:05:22.444Z,6.83
2023-02-06T15:07:52.734Z,7.17
2023-02-06T15:10:22.077Z,7.37
2023-02-06T15:12:53.660Z,8.40
2023-02-06T15:15:23.329Z,8.27
2023-02-06T15:18:05.373Z,7.23
2023-02-06T15:20:35.719Z,5.90
2023-02-06T15:23:16.886Z,7.23
2023-02-06T15:25:38.529Z,6.73
2023-02-06T15:28:08.102Z,7.30
2023-02-06T15:30:38.141Z,5.80
2023-02-06T15:33:09.183Z,5.03
2023-02-06T15:35:39.429Z,5.00
2023-02-06T15:38:09.315Z,5.13
2023-02-06T15:40:39.578Z,3.53
2023-02-06T15:43:07.605Z,5.53
2023-02-06T15:45:39.712Z,5.53
2023-02-06T15:48:28.219Z,5.53
2023-02-06T15:50:58.537Z,5.60
2023-02-06T15:53:31.734Z,6.60
2023-02-06T15:56:00.298Z,5.70
2023-02-06T15:58:28.970Z,7.80
2023-02-06T16:00:57.853Z,10.60
2023-02-06T16:03:27.376Z,8.77
2023-02-06T16:05:57.246Z,6.77
2023-02-06T16:08:27.260Z,11.07
2023-02-06T16:10:57.568Z,14.77
2023-02-06T16:13:27.240Z,11.77
2023-02-06T16:16:03.437Z,10.57
2023-02-06T16:18:33.623Z,8.67
2023-02-06T16:21:13.120Z,13.90
2023-02-06T16:23:45.653Z,10.30
2023-02-06T16:26:18.966Z,6.97
2023-02-06T16:28:49.121Z,10.13
2023-02-06T16:31:17.210Z,11.50
2023-02-06T16:33:46.903Z,7.97
2023-02-06T16:36:15.807Z,6.93
2023-02-06T16:38:54.033Z,9.20
2023-02-06T16:41:34.332Z,9.30
2023-02-06T16:44:03.732Z,6.63
2023-02-06T16:46:31.954Z,13.80
2023-02-06T16:49:00.760Z,9.33
2023-02-06T16:51:30.910Z,6.43
2023-02-06T16:56:25.888Z,5.90
2023-02-06T16:58:53.929Z,10.33
2023-02-06T17:01:25.699Z,5.60
2023-02-06T17:03:54.508Z,4.57
2023-02-06T17:06:24.595Z,9.63
2023-02-06T17:08:54.471Z,6.80
2023-02-06T17:11:22.443Z,7.60
2023-02-06T17:13:51.013Z,4.70
2023-02-06T17:16:21.027Z,7.23
2023-02-06T17:18:50.081Z,5.83
2023-02-06T17:21:20.237Z,7.03
2023-02-06T17:23:50.343Z,8.60
2023-02-06T17:28:46.061Z,7.12
2023-02-06T17:31:15.320Z,6.73
2023-02-06T17:33:43.602Z,11.97
2023-02-06T17:36:13.734Z,5.23
2023-02-06T17:41:09.364Z,4.37
2023-02-06T17:43:38.402Z,8.97
2023-02-06T17:46:07.340Z,7.83
2023-02-06T17:48:36.879Z,9.50
2023-02-06T17:51:06.671Z,6.27
2023-02-06T17:53:35.243Z,4.97
2023-02-06T17:56:07.724Z,5.43
2023-02-06T17:58:36.097Z,6.90
2023-02-06T18:01:04.645Z,7.20
2023-02-06T18:03:33.114Z,9.53
2023-02-06T18:06:01.870Z,7.80
2023-02-06T18:14:21.793Z,9.03
2023-02-06T18:17:05.704Z,11.23
2023-02-06T18:19:38.912Z,8.13
2023-02-06T18:22:06.831Z,9.43
2023-02-06T18:24:37.570Z,6.53
2023-02-06T18:27:06.621Z,6.63
2023-02-06T18:29:48.463Z,5.67
2023-02-06T18:32:05.413Z,7.17
2023-02-06T18:34:33.988Z,10.13
2023-02-06T18:37:02.535Z,8.67
2023-02-06T18:39:31.148Z,7.77
2023-02-06T18:42:17.774Z,5.20
2023-02-06T18:44:45.950Z,9.07
2023-02-06T18:47:15.412Z,5.60
2023-02-06T18:49:43.598Z,6.93
2023-02-06T18:52:12.102Z,7.67
2023-02-06T18:54:40.818Z,7.07
2023-02-06T18:57:09.703Z,10.33
2023-02-06T18:59:40.028Z,7.40
2023-02-06T19:02:40.017Z,8.87
2023-02-06T19:05:16.009Z,8.37
2023-02-06T19:07:57.056Z,5.83
2023-02-06T19:10:28.845Z,5.90
2023-02-06T19:12:57.593Z,6.03
2023-02-06T19:15:25.556Z,3.53
2023-02-06T19:17:54.124Z,2.97
2023-02-06T19:20:23.146Z,3.40
2023-02-06T19:22:55.844Z,4.03
2023-02-06T19:25:24.875Z,5.10
2023-02-06T19:27:55.245Z,4.67
2023-02-06T19:30:24.811Z,4.47
2023-02-06T19:32:52.904Z,4.23
2023-02-06T19:35:21.617Z,8.90
2023-02-06T19:37:49.672Z,5.50
2023-02-06T19:40:18.168Z,6.03
2023-02-06T19:42:46.954Z,7.27
2023-02-06T19:45:15.217Z,7.67
2023-02-06T19:47:43.892Z,15.27
2023-02-06T19:50:14.142Z,10.60
2023-02-06T19:52:42.097Z,6.33
2023-02-06T19:55:10.310Z,6.97
2023-02-06T19:57:39.758Z,7.50
2023-02-06T20:00:09.453Z,7.53
2023-02-06T20:02:39.836Z,7.60
2023-02-06T20:05:08.287Z,4.90
2023-02-06T20:07:37.275Z,6.30
2023-02-06T20:10:05.512Z,4.33
2023-02-06T20:12:33.715Z,5.17
2023-02-06T20:15:02.320Z,5.07
2023-02-06T20:20:23.385Z,6.27
2023-02-06T20:22:52.638Z,5.03
2023-02-06T20:25:22.237Z,5.17
2023-02-06T20:27:51.080Z,4.13
2023-02-06T20:30:20.350Z,3.60
2023-02-06T20:32:48.762Z,5.60
2023-02-06T20:35:17.437Z,4.13
2023-02-06T20:37:46.172Z,5.17
2023-02-06T20:40:16.612Z,5.47
2023-02-06T20:42:45.319Z,5.40
2023-02-06T20:45:13.882Z,6.60
2023-02-06T20:47:41.950Z,3.90
2023-02-06T20:50:10.021Z,8.50
2023-02-06T20:52:38.739Z,6.00
2023-02-06T20:55:07.558Z,2.80
2023-02-06T20:57:37.051Z,4.83
2023-02-06T21:00:06.742Z,7.40
2023-02-06T21:02:35.876Z,4.23
2023-02-06T21:05:06.312Z,4.20
2023-02-06T21:07:34.750Z,4.33
2023-02-06T21:10:04.464Z,4.70
2023-02-06T21:12:33.179Z,3.17
2023-02-06T21:15:01.715Z,4.30
2023-02-06T21:17:31.467Z,3.90
2023-02-06T21:19:59.745Z,3.47
2023-02-06T21:22:28.217Z,4.03
2023-02-06T21:24:57.068Z,5.77
2023-02-06T21:27:25.421Z,3.60
2023-02-06T21:29:53.474Z,4.87
2023-02-06T21:32:21.257Z,6.40
2023-02-06T21:34:49.892Z,3.60
2023-02-06T21:37:18.887Z,5.03
2023-02-06T21:39:46.860Z,4.23
2023-02-06T21:42:15.460Z,3.93
2023-02-06T21:44:43.925Z,3.47
2023-02-06T21:47:11.706Z,4.17
2023-02-06T21:49:40.161Z,3.50
2023-02-06T21:52:10.956Z,4.70
2023-02-06T21:54:39.430Z,4.10
2023-02-06T21:57:08.586Z,3.17
2023-02-06T21:59:38.695Z,3.67
2023-02-06T22:04:34.169Z,4.85
2023-02-06T22:07:02.839Z,6.30
2023-02-06T22:09:30.840Z,4.43
2023-02-06T22:11:59.573Z,6.47
2023-02-06T22:14:28.327Z,7.10
2023-02-06T22:16:56.210Z,7.10
2023-02-06T22:19:24.810Z,6.73
2023-02-06T22:21:53.368Z,7.43
2023-02-06T22:24:21.944Z,5.63
2023-02-06T22:26:50.356Z,5.00
2023-02-06T22:29:19.214Z,4.63
2023-02-06T22:31:49.078Z,3.87
2023-02-06T22:34:18.886Z,4.23
2023-02-06T22:36:47.319Z,6.57
2023-02-06T22:39:16.052Z,5.70
2023-02-06T22:41:46.147Z,5.43
2023-02-06T22:44:17.061Z,8.20
2023-02-06T22:46:47.296Z,5.90
2023-02-06T22:49:15.877Z,6.87
2023-02-06T22:51:44.415Z,5.73
2023-02-06T22:54:13.573Z,6.73
2023-02-06T22:56:42.851Z,5.60
2023-02-06T22:59:17.630Z,3.90
2023-02-06T23:01:59.250Z,9.23
2023-02-06T23:04:29.034Z,8.80
2023-02-06T23:06:57.701Z,7.07
2023-02-06T23:09:30.028Z,7.33
2023-02-06T23:11:58.452Z,14.60
2023-02-06T23:14:27.166Z,12.80
2023-02-06T23:16:55.117Z,11.17
2023-02-06T23:19:22.952Z,10.33
2023-02-06T23:21:52.026Z,9.50
2023-02-06T23:24:20.407Z,4.37
2023-02-06T23:26:49.180Z,11.63
2023-02-06T23:29:18.613Z,4.53
2023-02-06T23:31:48.336Z,7.03
2023-02-06T23:34:17.763Z,9.60
2023-02-06T23:36:46.714Z,3.97
2023-02-06T23:39:16.317Z,4.10
2023-02-06T23:41:44.797Z,5.83
2023-02-06T23:44:16.975Z,10.67
2023-02-06T23:46:45.668Z,8.53
2023-02-06T23:49:14.016Z,4.60
2023-02-06T23:51:42.380Z,7.17
2023-02-06T23:54:10.315Z,3.20
2023-02-06T23:56:39.387Z,14.40
2023-02-06T23:59:07.792Z,5.80
